sensor_id;sensor_type;location;lat;lon;timestamp;P1;durP1;ratioP1;P2;durP2;ratioP2
39404;SDS011;25121;51.090;17.038;2022-11-24T00:00:42;123.50;;;55.45;;
39404;SDS011;25121;51.090;17.038;2022-11-24T00:02:14;115.30;;;53.72;;
39404;SDS011;25121;51.090;17.038;2022-11-24T00:03:59;120.18;;;55.30;;
39404;SDS011;25121;51.090;17.038;2022-11-24T00:05:33;114.68;;;53.15;;
39404;SDS011;25121;51.090;17.038;2022-11-24T00:07:06;111.93;;;53.00;;
39404;SDS011;25121;51.090;17.038;2022-11-24T00:08:38;118.80;;;53.33;;
39404;SDS011;25121;51.090;17.038;2022-11-24T00:14:46;113.65;;;51.88;;
39404;SDS011;25121;51.090;17.038;2022-11-24T00:17:04;116.32;;;51.72;;
39404;SDS011;25121;51.090;17.038;2022-11-24T00:19:19;116.32;;;52.88;;
39404;SDS011;25121;51.090;17.038;2022-11-24T00:21:56;112.00;;;51.17;;
39404;SDS011;25121;51.090;17.038;2022-11-24T00:23:39;119.18;;;52.08;;
39404;SDS011;25121;51.090;17.038;2022-11-24T00:25:10;118.97;;;52.90;;
39404;SDS011;25121;51.090;17.038;2022-11-24T00:29:18;114.82;;;52.08;;
39404;SDS011;25121;51.090;17.038;2022-11-24T00:30:51;110.93;;;51.10;;
39404;SDS011;25121;51.090;17.038;2022-11-24T00:32:15;107.35;;;51.40;;
39404;SDS011;25121;51.090;17.038;2022-11-24T00:33:41;114.22;;;53.20;;
39404;SDS011;25121;51.090;17.038;2022-11-24T00:35:08;111.15;;;55.75;;
39404;SDS011;25121;51.090;17.038;2022-11-24T00:36:31;119.75;;;53.85;;
39404;SDS011;25121;51.090;17.038;2022-11-24T00:37:56;111.15;;;50.50;;
39404;SDS011;25121;51.090;17.038;2022-11-24T00:39:17;87.53;;;41.38;;
39404;SDS011;25121;51.090;17.038;2022-11-24T00:40:42;110.53;;;52.30;;
39404;SDS011;25121;51.090;17.038;2022-11-24T00:42:03;115.28;;;54.25;;
39404;SDS011;25121;51.090;17.038;2022-11-24T00:43:29;106.93;;;52.40;;
39404;SDS011;25121;51.090;17.038;2022-11-24T00:44:52;108.68;;;51.55;;
39404;SDS011;25121;51.090;17.038;2022-11-24T00:46:16;113.70;;;52.78;;
39404;SDS011;25121;51.090;17.038;2022-11-24T00:47:39;112.88;;;51.60;;
39404;SDS011;25121;51.090;17.038;2022-11-24T00:49:10;105.65;;;51.70;;
39404;SDS011;25121;51.090;17.038;2022-11-24T00:50:36;112.78;;;52.17;;
39404;SDS011;25121;51.090;17.038;2022-11-24T00:51:57;100.60;;;51.22;;
39404;SDS011;25121;51.090;17.038;2022-11-24T00:53:26;104.45;;;52.08;;
39404;SDS011;25121;51.090;17.038;2022-11-24T00:54:51;105.72;;;49.90;;
39404;SDS011;25121;51.090;17.038;2022-11-24T00:56:21;109.55;;;50.47;;
39404;SDS011;25121;51.090;17.038;2022-11-24T00:57:48;113.40;;;51.70;;
39404;SDS011;25121;51.090;17.038;2022-11-24T00:59:23;105.30;;;49.65;;
39404;SDS011;25121;51.090;17.038;2022-11-24T01:01:13;107.57;;;49.17;;
39404;SDS011;25121;51.090;17.038;2022-11-24T01:02:41;109.18;;;52.33;;
39404;SDS011;25121;51.090;17.038;2022-11-24T01:04:14;110.57;;;52.42;;
39404;SDS011;25121;51.090;17.038;2022-11-24T01:05:42;110.72;;;55.25;;
39404;SDS011;25121;51.090;17.038;2022-11-24T01:07:03;106.22;;;51.90;;
39404;SDS011;25121;51.090;17.038;2022-11-24T01:08:26;107.10;;;50.03;;
39404;SDS011;25121;51.090;17.038;2022-11-24T01:09:52;109.47;;;51.42;;
39404;SDS011;25121;51.090;17.038;2022-11-24T01:11:14;110.00;;;53.58;;
39404;SDS011;25121;51.090;17.038;2022-11-24T01:12:47;107.25;;;56.83;;
39404;SDS011;25121;51.090;17.038;2022-11-24T01:14:10;119.90;;;58.88;;
39404;SDS011;25121;51.090;17.038;2022-11-24T01:15:42;101.78;;;49.97;;
39404;SDS011;25121;51.090;17.038;2022-11-24T01:17:06;105.40;;;50.80;;
39404;SDS011;25121;51.090;17.038;2022-11-24T01:18:34;105.63;;;55.67;;
39404;SDS011;25121;51.090;17.038;2022-11-24T01:25:34;108.65;;;52.42;;
39404;SDS011;25121;51.090;17.038;2022-11-24T01:27:04;103.38;;;51.78;;
39404;SDS011;25121;51.090;17.038;2022-11-24T01:28:29;98.10;;;50.70;;
39404;SDS011;25121;51.090;17.038;2022-11-24T01:29:53;107.65;;;51.22;;
39404;SDS011;25121;51.090;17.038;2022-11-24T01:31:16;110.18;;;52.60;;
39404;SDS011;25121;51.090;17.038;2022-11-24T01:32:41;99.57;;;50.20;;
39404;SDS011;25121;51.090;17.038;2022-11-24T01:34:07;100.25;;;48.47;;
39404;SDS011;25121;51.090;17.038;2022-11-24T01:35:28;110.70;;;51.38;;
39404;SDS011;25121;51.090;17.038;2022-11-24T01:36:51;106.82;;;50.95;;
39404;SDS011;25121;51.090;17.038;2022-11-24T01:38:15;99.97;;;52.95;;
39404;SDS011;25121;51.090;17.038;2022-11-24T01:39:37;101.72;;;48.67;;
39404;SDS011;25121;51.090;17.038;2022-11-24T01:41:02;108.22;;;51.17;;
39404;SDS011;25121;51.090;17.038;2022-11-24T01:42:24;104.10;;;49.92;;
39404;SDS011;25121;51.090;17.038;2022-11-24T01:43:46;100.80;;;48.67;;
39404;SDS011;25121;51.090;17.038;2022-11-24T01:47:04;98.15;;;47.55;;
39404;SDS011;25121;51.090;17.038;2022-11-24T01:48:42;99.78;;;48.58;;
39404;SDS011;25121;51.090;17.038;2022-11-24T01:50:07;99.40;;;48.63;;
39404;SDS011;25121;51.090;17.038;2022-11-24T01:51:35;102.35;;;49.08;;
39404;SDS011;25121;51.090;17.038;2022-11-24T01:53:03;105.50;;;49.45;;
39404;SDS011;25121;51.090;17.038;2022-11-24T01:54:26;96.63;;;49.40;;
39404;SDS011;25121;51.090;17.038;2022-11-24T01:55:52;108.15;;;52.17;;
39404;SDS011;25121;51.090;17.038;2022-11-24T01:58:38;103.75;;;50.33;;
39404;SDS011;25121;51.090;17.038;2022-11-24T02:00:03;106.80;;;49.78;;
39404;SDS011;25121;51.090;17.038;2022-11-24T02:01:36;112.13;;;50.72;;
39404;SDS011;25121;51.090;17.038;2022-11-24T02:02:58;104.65;;;52.55;;
39404;SDS011;25121;51.090;17.038;2022-11-24T02:04:29;106.72;;;52.33;;
39404;SDS011;25121;51.090;17.038;2022-11-24T02:05:57;114.65;;;54.35;;
39404;SDS011;25121;51.090;17.038;2022-11-24T02:07:24;115.68;;;54.70;;
39404;SDS011;25121;51.090;17.038;2022-11-24T02:09:20;105.68;;;51.60;;
39404;SDS011;25121;51.090;17.038;2022-11-24T02:11:17;107.55;;;53.40;;
39404;SDS011;25121;51.090;17.038;2022-11-24T02:13:11;111.15;;;53.15;;
39404;SDS011;25121;51.090;17.038;2022-11-24T02:18:26;110.53;;;51.20;;
39404;SDS011;25121;51.090;17.038;2022-11-24T02:20:03;115.55;;;52.53;;
39404;SDS011;25121;51.090;17.038;2022-11-24T02:22:50;109.75;;;53.38;;
39404;SDS011;25121;51.090;17.038;2022-11-24T02:25:02;120.30;;;55.30;;
39404;SDS011;25121;51.090;17.038;2022-11-24T02:27:14;121.95;;;61.15;;
39404;SDS011;25121;51.090;17.038;2022-11-24T02:29:50;128.10;;;60.33;;
39404;SDS011;25121;51.090;17.038;2022-11-24T02:32:02;138.55;;;69.68;;
39404;SDS011;25121;51.090;17.038;2022-11-24T02:33:46;138.35;;;62.97;;
39404;SDS011;25121;51.090;17.038;2022-11-24T02:35:53;130.52;;;65.45;;
39404;SDS011;25121;51.090;17.038;2022-11-24T02:37:41;141.25;;;66.13;;
39404;SDS011;25121;51.090;17.038;2022-11-24T02:39:22;130.90;;;64.60;;
39404;SDS011;25121;51.090;17.038;2022-11-24T02:41:04;132.20;;;62.42;;
39404;SDS011;25121;51.090;17.038;2022-11-24T02:42:48;127.80;;;62.07;;
39404;SDS011;25121;51.090;17.038;2022-11-24T02:44:53;129.77;;;57.63;;
39404;SDS011;25121;51.090;17.038;2022-11-24T02:46:17;106.95;;;55.10;;
39404;SDS011;25121;51.090;17.038;2022-11-24T02:47:39;116.55;;;55.80;;
39404;SDS011;25121;51.090;17.038;2022-11-24T02:49:01;119.18;;;55.85;;
39404;SDS011;25121;51.090;17.038;2022-11-24T02:50:36;114.82;;;55.03;;
39404;SDS011;25121;51.090;17.038;2022-11-24T02:51:59;112.70;;;55.95;;
39404;SDS011;25121;51.090;17.038;2022-11-24T02:53:22;111.60;;;56.92;;
39404;SDS011;25121;51.090;17.038;2022-11-24T02:54:45;110.57;;;54.75;;
39404;SDS011;25121;51.090;17.038;2022-11-24T02:56:09;114.50;;;56.72;;
39404;SDS011;25121;51.090;17.038;2022-11-24T02:57:34;119.00;;;55.85;;
39404;SDS011;25121;51.090;17.038;2022-11-24T02:58:57;106.88;;;50.45;;
39404;SDS011;25121;51.090;17.038;2022-11-24T03:00:22;120.28;;;56.10;;
39404;SDS011;25121;51.090;17.038;2022-11-24T03:01:43;104.57;;;51.83;;
39404;SDS011;25121;51.090;17.038;2022-11-24T03:03:06;108.63;;;51.85;;
39404;SDS011;25121;51.090;17.038;2022-11-24T03:07:42;111.03;;;51.97;;
39404;SDS011;25121;51.090;17.038;2022-11-24T03:09:05;111.70;;;51.38;;
39404;SDS011;25121;51.090;17.038;2022-11-24T03:10:27;111.95;;;53.42;;
39404;SDS011;25121;51.090;17.038;2022-11-24T03:11:52;114.68;;;53.25;;
39404;SDS011;25121;51.090;17.038;2022-11-24T03:13:14;107.93;;;50.15;;
39404;SDS011;25121;51.090;17.038;2022-11-24T03:14:38;108.72;;;51.90;;
39404;SDS011;25121;51.090;17.038;2022-11-24T03:15:59;114.60;;;54.00;;
39404;SDS011;25121;51.090;17.038;2022-11-24T03:17:25;109.82;;;52.72;;
39404;SDS011;25121;51.090;17.038;2022-11-24T03:18:49;105.15;;;53.53;;
39404;SDS011;25121;51.090;17.038;2022-11-24T03:20:12;112.85;;;56.33;;
39404;SDS011;25121;51.090;17.038;2022-11-24T03:21:51;121.63;;;57.10;;
39404;SDS011;25121;51.090;17.038;2022-11-24T03:23:23;111.28;;;52.97;;
39404;SDS011;25121;51.090;17.038;2022-11-24T03:26:12;110.78;;;52.47;;
39404;SDS011;25121;51.090;17.038;2022-11-24T03:27:09;104.20;;;50.15;;
39404;SDS011;25121;51.090;17.038;2022-11-24T03:28:38;115.78;;;55.08;;
39404;SDS011;25121;51.090;17.038;2022-11-24T03:30:00;128.30;;;61.28;;
39404;SDS011;25121;51.090;17.038;2022-11-24T03:31:22;117.22;;;60.65;;
39404;SDS011;25121;51.090;17.038;2022-11-24T03:32:47;108.97;;;55.53;;
39404;SDS011;25121;51.090;17.038;2022-11-24T03:34:11;120.50;;;56.97;;
39404;SDS011;25121;51.090;17.038;2022-11-24T03:35:32;113.03;;;57.90;;
39404;SDS011;25121;51.090;17.038;2022-11-24T03:36:55;117.95;;;58.38;;
39404;SDS011;25121;51.090;17.038;2022-11-24T03:38:17;122.63;;;58.70;;
39404;SDS011;25121;51.090;17.038;2022-11-24T03:39:39;113.25;;;54.28;;
39404;SDS011;25121;51.090;17.038;2022-11-24T03:41:01;110.25;;;51.83;;
39404;SDS011;25121;51.090;17.038;2022-11-24T03:42:25;98.93;;;51.30;;
39404;SDS011;25121;51.090;17.038;2022-11-24T03:43:49;102.10;;;49.72;;
39404;SDS011;25121;51.090;17.038;2022-11-24T03:45:30;91.47;;;46.78;;
39404;SDS011;25121;51.090;17.038;2022-11-24T03:47:11;112.18;;;52.20;;
39404;SDS011;25121;51.090;17.038;2022-11-24T03:48:33;101.68;;;48.15;;
39404;SDS011;25121;51.090;17.038;2022-11-24T03:49:55;99.68;;;49.22;;
39404;SDS011;25121;51.090;17.038;2022-11-24T03:56:45;80.03;;;37.03;;
39404;SDS011;25121;51.090;17.038;2022-11-24T03:58:25;98.15;;;48.53;;
39404;SDS011;25121;51.090;17.038;2022-11-24T04:00:19;93.40;;;44.72;;
39404;SDS011;25121;51.090;17.038;2022-11-24T04:03:03;102.15;;;46.95;;
39404;SDS011;25121;51.090;17.038;2022-11-24T04:04:52;97.25;;;45.67;;
39404;SDS011;25121;51.090;17.038;2022-11-24T04:07:09;101.22;;;45.45;;
39404;SDS011;25121;51.090;17.038;2022-11-24T04:31:42;98.95;;;50.03;;
39404;SDS011;25121;51.090;17.038;2022-11-24T04:36:32;108.45;;;51.33;;
39404;SDS011;25121;51.090;17.038;2022-11-24T04:38:26;134.25;;;69.43;;
39404;SDS011;25121;51.090;17.038;2022-11-24T04:43:12;115.45;;;56.22;;
39404;SDS011;25121;51.090;17.038;2022-11-24T04:45:53;166.07;;;87.00;;
39404;SDS011;25121;51.090;17.038;2022-11-24T04:48:35;152.15;;;80.22;;
39404;SDS011;25121;51.090;17.038;2022-11-24T04:55:07;124.25;;;58.75;;
39404;SDS011;25121;51.090;17.038;2022-11-24T05:00:22;121.45;;;51.22;;
39404;SDS011;25121;51.090;17.038;2022-11-24T05:05:44;114.90;;;52.53;;
39404;SDS011;25121;51.090;17.038;2022-11-24T05:21:52;123.28;;;54.83;;
39404;SDS011;25121;51.090;17.038;2022-11-24T05:24:52;117.63;;;52.30;;
39404;SDS011;25121;51.090;17.038;2022-11-24T05:33:48;116.13;;;49.95;;
39404;SDS011;25121;51.090;17.038;2022-11-24T05:37:16;114.65;;;50.78;;
39404;SDS011;25121;51.090;17.038;2022-11-24T06:12:07;104.70;;;48.20;;
39404;SDS011;25121;51.090;17.038;2022-11-24T06:15:17;122.97;;;52.00;;
39404;SDS011;25121;51.090;17.038;2022-11-24T06:17:34;109.45;;;49.50;;
39404;SDS011;25121;51.090;17.038;2022-11-24T06:22:31;109.15;;;48.15;;
39404;SDS011;25121;51.090;17.038;2022-11-24T06:24:00;114.57;;;51.25;;
39404;SDS011;25121;51.090;17.038;2022-11-24T06:25:23;111.90;;;50.95;;
39404;SDS011;25121;51.090;17.038;2022-11-24T06:26:45;114.00;;;53.13;;
39404;SDS011;25121;51.090;17.038;2022-11-24T06:28:07;123.05;;;54.03;;
39404;SDS011;25121;51.090;17.038;2022-11-24T06:29:54;115.68;;;53.03;;
39404;SDS011;25121;51.090;17.038;2022-11-24T06:32:01;115.15;;;51.97;;
39404;SDS011;25121;51.090;17.038;2022-11-24T06:33:46;118.68;;;51.28;;
39404;SDS011;25121;51.090;17.038;2022-11-24T06:35:33;113.25;;;52.35;;
39404;SDS011;25121;51.090;17.038;2022-11-24T06:37:26;110.18;;;51.40;;
39404;SDS011;25121;51.090;17.038;2022-11-24T06:39:24;113.18;;;50.67;;
39404;SDS011;25121;51.090;17.038;2022-11-24T06:41:18;104.13;;;49.20;;
39404;SDS011;25121;51.090;17.038;2022-11-24T06:42:50;110.32;;;49.70;;
39404;SDS011;25121;51.090;17.038;2022-11-24T06:47:12;108.75;;;47.65;;
39404;SDS011;25121;51.090;17.038;2022-11-24T06:48:43;116.00;;;51.10;;
39404;SDS011;25121;51.090;17.038;2022-11-24T06:50:25;121.80;;;51.25;;
39404;SDS011;25121;51.090;17.038;2022-11-24T06:52:07;114.18;;;50.15;;
39404;SDS011;25121;51.090;17.038;2022-11-24T06:53:53;112.90;;;49.60;;
39404;SDS011;25121;51.090;17.038;2022-11-24T06:55:25;115.20;;;51.38;;
39404;SDS011;25121;51.090;17.038;2022-11-24T06:56:54;110.28;;;51.00;;
39404;SDS011;25121;51.090;17.038;2022-11-24T06:58:18;103.47;;;49.55;;
39404;SDS011;25121;51.090;17.038;2022-11-24T06:59:40;109.40;;;49.55;;
39404;SDS011;25121;51.090;17.038;2022-11-24T07:01:04;104.38;;;48.60;;
39404;SDS011;25121;51.090;17.038;2022-11-24T07:02:29;105.13;;;49.85;;
39404;SDS011;25121;51.090;17.038;2022-11-24T07:03:54;111.57;;;51.00;;
39404;SDS011;25121;51.090;17.038;2022-11-24T07:05:18;109.15;;;48.85;;
39404;SDS011;25121;51.090;17.038;2022-11-24T07:06:41;110.88;;;49.20;;
39404;SDS011;25121;51.090;17.038;2022-11-24T07:08:03;105.80;;;49.22;;
39404;SDS011;25121;51.090;17.038;2022-11-24T07:09:26;106.85;;;51.08;;
39404;SDS011;25121;51.090;17.038;2022-11-24T07:10:50;105.97;;;48.90;;
39404;SDS011;25121;51.090;17.038;2022-11-24T07:12:12;102.13;;;48.30;;
39404;SDS011;25121;51.090;17.038;2022-11-24T07:13:48;100.47;;;47.10;;
39404;SDS011;25121;51.090;17.038;2022-11-24T07:15:19;99.72;;;47.22;;
39404;SDS011;25121;51.090;17.038;2022-11-24T07:16:41;107.32;;;49.67;;
39404;SDS011;25121;51.090;17.038;2022-11-24T07:18:06;95.15;;;45.40;;
39404;SDS011;25121;51.090;17.038;2022-11-24T07:19:31;100.88;;;47.40;;
39404;SDS011;25121;51.090;17.038;2022-11-24T07:20:53;104.35;;;46.72;;
39404;SDS011;25121;51.090;17.038;2022-11-24T07:22:16;98.65;;;46.35;;
39404;SDS011;25121;51.090;17.038;2022-11-24T07:23:38;101.78;;;49.75;;
39404;SDS011;25121;51.090;17.038;2022-11-24T07:25:10;107.25;;;50.70;;
39404;SDS011;25121;51.090;17.038;2022-11-24T07:26:35;99.80;;;47.53;;
39404;SDS011;25121;51.090;17.038;2022-11-24T07:27:57;96.65;;;50.08;;
39404;SDS011;25121;51.090;17.038;2022-11-24T07:29:19;111.78;;;49.42;;
39404;SDS011;25121;51.090;17.038;2022-11-24T07:30:42;108.55;;;49.22;;
39404;SDS011;25121;51.090;17.038;2022-11-24T07:32:04;118.78;;;51.50;;
39404;SDS011;25121;51.090;17.038;2022-11-24T07:33:32;113.25;;;50.40;;
39404;SDS011;25121;51.090;17.038;2022-11-24T07:34:55;109.00;;;50.58;;
39404;SDS011;25121;51.090;17.038;2022-11-24T07:36:17;115.35;;;53.55;;
39404;SDS011;25121;51.090;17.038;2022-11-24T07:37:39;107.40;;;48.85;;
39404;SDS011;25121;51.090;17.038;2022-11-24T07:39:09;108.25;;;50.17;;
39404;SDS011;25121;51.090;17.038;2022-11-24T07:40:34;112.70;;;50.08;;
39404;SDS011;25121;51.090;17.038;2022-11-24T07:42:00;110.65;;;51.08;;
39404;SDS011;25121;51.090;17.038;2022-11-24T07:43:24;109.55;;;50.67;;
39404;SDS011;25121;51.090;17.038;2022-11-24T07:44:46;105.15;;;49.05;;
39404;SDS011;25121;51.090;17.038;2022-11-24T07:48:14;107.35;;;48.53;;
39404;SDS011;25121;51.090;17.038;2022-11-24T07:49:38;107.32;;;48.95;;
39404;SDS011;25121;51.090;17.038;2022-11-24T07:51:01;120.15;;;53.92;;
39404;SDS011;25121;51.090;17.038;2022-11-24T07:52:24;117.22;;;51.63;;
39404;SDS011;25121;51.090;17.038;2022-11-24T07:53:46;115.10;;;50.80;;
39404;SDS011;25121;51.090;17.038;2022-11-24T07:55:08;115.50;;;51.50;;
39404;SDS011;25121;51.090;17.038;2022-11-24T07:56:30;117.93;;;54.58;;
39404;SDS011;25121;51.090;17.038;2022-11-24T07:57:54;118.82;;;53.03;;
39404;SDS011;25121;51.090;17.038;2022-11-24T07:59:19;113.95;;;50.60;;
39404;SDS011;25121;51.090;17.038;2022-11-24T08:00:42;115.38;;;52.42;;
39404;SDS011;25121;51.090;17.038;2022-11-24T08:02:05;109.47;;;49.85;;
39404;SDS011;25121;51.090;17.038;2022-11-24T08:03:27;113.07;;;52.45;;
39404;SDS011;25121;51.090;17.038;2022-11-24T08:04:49;113.15;;;51.25;;
39404;SDS011;25121;51.090;17.038;2022-11-24T08:06:15;112.40;;;51.58;;
39404;SDS011;25121;51.090;17.038;2022-11-24T08:08:02;113.57;;;51.92;;
39404;SDS011;25121;51.090;17.038;2022-11-24T08:11:06;119.22;;;51.58;;
39404;SDS011;25121;51.090;17.038;2022-11-24T08:12:30;114.30;;;53.70;;
39404;SDS011;25121;51.090;17.038;2022-11-24T08:13:53;120.50;;;56.25;;
39404;SDS011;25121;51.090;17.038;2022-11-24T08:15:16;111.00;;;52.58;;
39404;SDS011;25121;51.090;17.038;2022-11-24T08:16:42;115.70;;;55.13;;
39404;SDS011;25121;51.090;17.038;2022-11-24T08:18:10;113.65;;;52.65;;
39404;SDS011;25121;51.090;17.038;2022-11-24T08:25:41;127.47;;;51.90;;
39404;SDS011;25121;51.090;17.038;2022-11-24T08:27:24;119.30;;;51.55;;
39404;SDS011;25121;51.090;17.038;2022-11-24T08:28:46;132.82;;;52.33;;
39404;SDS011;25121;51.090;17.038;2022-11-24T08:30:15;122.65;;;54.20;;
39404;SDS011;25121;51.090;17.038;2022-11-24T08:31:41;133.48;;;57.03;;
39404;SDS011;25121;51.090;17.038;2022-11-24T08:33:06;130.32;;;57.38;;
39404;SDS011;25121;51.090;17.038;2022-11-24T08:34:28;129.82;;;56.20;;
39404;SDS011;25121;51.090;17.038;2022-11-24T08:35:54;124.82;;;55.92;;
39404;SDS011;25121;51.090;17.038;2022-11-24T08:37:16;126.15;;;55.17;;
39404;SDS011;25121;51.090;17.038;2022-11-24T08:38:41;127.20;;;54.20;;
39404;SDS011;25121;51.090;17.038;2022-11-24T08:40:04;125.10;;;52.88;;
39404;SDS011;25121;51.090;17.038;2022-11-24T08:41:27;119.47;;;54.42;;
39404;SDS011;25121;51.090;17.038;2022-11-24T08:42:50;119.53;;;52.65;;
39404;SDS011;25121;51.090;17.038;2022-11-24T08:44:13;115.90;;;53.55;;
39404;SDS011;25121;51.090;17.038;2022-11-24T08:45:41;115.53;;;52.60;;
39404;SDS011;25121;51.090;17.038;2022-11-24T08:47:13;106.28;;;49.08;;
39404;SDS011;25121;51.090;17.038;2022-11-24T08:48:41;117.35;;;52.35;;
39404;SDS011;25121;51.090;17.038;2022-11-24T08:50:04;103.40;;;49.00;;
39404;SDS011;25121;51.090;17.038;2022-11-24T08:51:27;112.65;;;51.95;;
39404;SDS011;25121;51.090;17.038;2022-11-24T08:52:50;109.60;;;53.35;;
39404;SDS011;25121;51.090;17.038;2022-11-24T08:54:17;113.10;;;52.78;;
39404;SDS011;25121;51.090;17.038;2022-11-24T08:55:40;116.43;;;53.70;;
39404;SDS011;25121;51.090;17.038;2022-11-24T08:57:03;134.10;;;55.38;;
39404;SDS011;25121;51.090;17.038;2022-11-24T08:58:25;115.60;;;53.42;;
39404;SDS011;25121;51.090;17.038;2022-11-24T08:59:48;117.47;;;53.55;;
39404;SDS011;25121;51.090;17.038;2022-11-24T09:01:13;112.65;;;54.05;;
39404;SDS011;25121;51.090;17.038;2022-11-24T09:02:37;112.13;;;53.88;;
39404;SDS011;25121;51.090;17.038;2022-11-24T09:03:59;115.20;;;55.78;;
39404;SDS011;25121;51.090;17.038;2022-11-24T09:05:22;119.68;;;55.65;;
39404;SDS011;25121;51.090;17.038;2022-11-24T09:07:04;114.03;;;54.78;;
39404;SDS011;25121;51.090;17.038;2022-11-24T09:08:27;113.63;;;52.25;;
39404;SDS011;25121;51.090;17.038;2022-11-24T09:09:50;107.65;;;50.25;;
39404;SDS011;25121;51.090;17.038;2022-11-24T09:12:35;122.53;;;53.58;;
39404;SDS011;25121;51.090;17.038;2022-11-24T09:14:05;113.93;;;52.95;;
39404;SDS011;25121;51.090;17.038;2022-11-24T09:15:32;112.72;;;53.75;;
39404;SDS011;25121;51.090;17.038;2022-11-24T09:17:00;116.50;;;55.65;;
39404;SDS011;25121;51.090;17.038;2022-11-24T09:18:25;108.13;;;51.58;;
39404;SDS011;25121;51.090;17.038;2022-11-24T09:19:52;109.40;;;53.97;;
39404;SDS011;25121;51.090;17.038;2022-11-24T09:21:30;117.78;;;55.55;;
39404;SDS011;25121;51.090;17.038;2022-11-24T09:22:55;107.60;;;54.15;;
39404;SDS011;25121;51.090;17.038;2022-11-24T09:24:17;111.65;;;55.55;;
39404;SDS011;25121;51.090;17.038;2022-11-24T09:25:41;112.70;;;54.50;;
39404;SDS011;25121;51.090;17.038;2022-11-24T09:27:08;123.35;;;59.05;;
39404;SDS011;25121;51.090;17.038;2022-11-24T09:28:30;120.45;;;59.03;;
39404;SDS011;25121;51.090;17.038;2022-11-24T09:29:52;110.85;;;57.00;;
39404;SDS011;25121;51.090;17.038;2022-11-24T09:31:16;115.82;;;57.28;;
39404;SDS011;25121;51.090;17.038;2022-11-24T09:32:40;114.00;;;56.10;;
39404;SDS011;25121;51.090;17.038;2022-11-24T09:34:03;111.75;;;55.20;;
39404;SDS011;25121;51.090;17.038;2022-11-24T09:35:26;109.10;;;53.92;;
39404;SDS011;25121;51.090;17.038;2022-11-24T09:36:48;103.40;;;52.72;;
39404;SDS011;25121;51.090;17.038;2022-11-24T09:38:11;106.97;;;52.88;;
39404;SDS011;25121;51.090;17.038;2022-11-24T09:39:33;108.63;;;51.83;;
39404;SDS011;25121;51.090;17.038;2022-11-24T09:40:56;101.03;;;50.53;;
39404;SDS011;25121;51.090;17.038;2022-11-24T09:42:34;105.18;;;50.38;;
39404;SDS011;25121;51.090;17.038;2022-11-24T09:44:35;108.43;;;51.05;;
39404;SDS011;25121;51.090;17.038;2022-11-24T09:46:25;99.63;;;49.00;;
39404;SDS011;25121;51.090;17.038;2022-11-24T09:47:56;99.03;;;50.17;;
39404;SDS011;25121;51.090;17.038;2022-11-24T09:49:23;109.85;;;51.92;;
39404;SDS011;25121;51.090;17.038;2022-11-24T09:50:52;107.60;;;51.50;;
39404;SDS011;25121;51.090;17.038;2022-11-24T09:52:20;103.32;;;51.63;;
39404;SDS011;25121;51.090;17.038;2022-11-24T09:53:54;99.32;;;51.55;;
39404;SDS011;25121;51.090;17.038;2022-11-24T09:57:05;102.50;;;49.20;;
39404;SDS011;25121;51.090;17.038;2022-11-24T09:58:34;126.63;;;54.50;;
39404;SDS011;25121;51.090;17.038;2022-11-24T10:00:09;111.10;;;51.83;;
39404;SDS011;25121;51.090;17.038;2022-11-24T10:01:39;121.75;;;56.42;;
39404;SDS011;25121;51.090;17.038;2022-11-24T10:03:25;120.68;;;55.58;;
39404;SDS011;25121;51.090;17.038;2022-11-24T10:07:50;111.50;;;52.05;;
39404;SDS011;25121;51.090;17.038;2022-11-24T10:09:55;124.65;;;57.60;;
39404;SDS011;25121;51.090;17.038;2022-11-24T10:12:25;102.50;;;51.88;;
39404;SDS011;25121;51.090;17.038;2022-11-24T10:14:22;101.38;;;50.22;;
39404;SDS011;25121;51.090;17.038;2022-11-24T10:16:06;100.75;;;50.55;;
39404;SDS011;25121;51.090;17.038;2022-11-24T10:17:42;104.20;;;54.72;;
39404;SDS011;25121;51.090;17.038;2022-11-24T10:19:21;120.53;;;57.10;;
39404;SDS011;25121;51.090;17.038;2022-11-24T10:21:03;123.45;;;58.60;;
39404;SDS011;25121;51.090;17.038;2022-11-24T10:22:57;115.22;;;56.10;;
39404;SDS011;25121;51.090;17.038;2022-11-24T10:24:49;99.53;;;50.28;;
39404;SDS011;25121;51.090;17.038;2022-11-24T10:28:17;96.93;;;48.97;;
39404;SDS011;25121;51.090;17.038;2022-11-24T10:33:02;104.05;;;52.63;;
39404;SDS011;25121;51.090;17.038;2022-11-24T10:34:58;105.07;;;51.63;;
39404;SDS011;25121;51.090;17.038;2022-11-24T10:36:34;100.40;;;51.85;;
39404;SDS011;25121;51.090;17.038;2022-11-24T10:38:10;104.43;;;52.33;;
39404;SDS011;25121;51.090;17.038;2022-11-24T10:39:52;106.32;;;52.30;;
39404;SDS011;25121;51.090;17.038;2022-11-24T10:41:20;100.63;;;49.95;;
39404;SDS011;25121;51.090;17.038;2022-11-24T10:42:53;100.55;;;49.85;;
39404;SDS011;25121;51.090;17.038;2022-11-24T10:44:20;100.25;;;49.58;;
39404;SDS011;25121;51.090;17.038;2022-11-24T10:45:43;104.65;;;51.03;;
39404;SDS011;25121;51.090;17.038;2022-11-24T10:47:14;112.05;;;52.80;;
39404;SDS011;25121;51.090;17.038;2022-11-24T10:48:49;116.00;;;51.25;;
39404;SDS011;25121;51.090;17.038;2022-11-24T10:50:34;107.03;;;51.25;;
39404;SDS011;25121;51.090;17.038;2022-11-24T10:52:03;100.55;;;49.72;;
39404;SDS011;25121;51.090;17.038;2022-11-24T10:53:34;99.82;;;49.28;;
39404;SDS011;25121;51.090;17.038;2022-11-24T10:55:03;104.70;;;50.60;;
39404;SDS011;25121;51.090;17.038;2022-11-24T10:58:13;106.78;;;48.95;;
39404;SDS011;25121;51.090;17.038;2022-11-24T10:59:57;105.72;;;50.03;;
39404;SDS011;25121;51.090;17.038;2022-11-24T11:02:02;102.15;;;48.30;;
39404;SDS011;25121;51.090;17.038;2022-11-24T11:04:01;105.95;;;49.97;;
39404;SDS011;25121;51.090;17.038;2022-11-24T11:05:49;107.10;;;48.60;;
39404;SDS011;25121;51.090;17.038;2022-11-24T11:07:21;104.28;;;49.00;;
39404;SDS011;25121;51.090;17.038;2022-11-24T11:09:17;104.70;;;50.63;;
39404;SDS011;25121;51.090;17.038;2022-11-24T11:13:30;112.40;;;50.25;;
39404;SDS011;25121;51.090;17.038;2022-11-24T11:14:59;110.35;;;48.80;;
39404;SDS011;25121;51.090;17.038;2022-11-24T11:16:42;106.80;;;52.17;;
39404;SDS011;25121;51.090;17.038;2022-11-24T11:18:11;103.63;;;50.72;;
39404;SDS011;25121;51.090;17.038;2022-11-24T11:19:37;105.18;;;48.97;;
39404;SDS011;25121;51.090;17.038;2022-11-24T11:21:21;108.47;;;51.22;;
39404;SDS011;25121;51.090;17.038;2022-11-24T11:22:52;106.55;;;53.30;;
39404;SDS011;25121;51.090;17.038;2022-11-24T11:24:17;114.10;;;53.17;;
39404;SDS011;25121;51.090;17.038;2022-11-24T11:25:41;110.30;;;52.53;;
39404;SDS011;25121;51.090;17.038;2022-11-24T11:28:48;108.88;;;51.40;;
39404;SDS011;25121;51.090;17.038;2022-11-24T11:30:48;113.30;;;51.85;;